Time;durP1;ratioP1;P1;durP2;ratioP2;P2;SDS_P1;SDS_P2;PMS_P1;PMS_P2;Temp;Humidity;BMP_temperature;BMP_pressure;BME280_temperature;BME280_humidity;BME280_pressure;Samples;Min_cycle;Max_cycle;Signal;HPM_P1;HPM_P2
2022/01/02 00:01:36;;;;;;;10.10;9.20;;;3.80;99.90;;;4.53;100.00;98605.66;5170958;28;20202;-64
2022/01/02 00:04:15;;;;;;;9.77;8.83;;;3.90;99.90;;;4.51;100.00;98605.50;5171180;28;20215;-64
2022/01/02 00:06:51;;;;;;;11.30;10.20;;;3.80;99.90;;;4.46;100.00;98609.28;5170152;28;20220;-64
2022/01/02 00:09:32;;;;;;;12.83;11.37;;;3.80;99.90;;;4.47;100.00;98605.09;5178430;28;20203;-64
2022/01/02 00:12:12;;;;;;;12.37;11.20;;;3.80;99.90;;;4.45;100.00;98607.47;5180214;28;20209;-64
2022/01/02 00:14:47;;;;;;;10.77;9.77;;;3.70;99.90;;;4.50;100.00;98590.19;5180448;28;20203;-64
2022/01/02 00:17:23;;;;;;;11.30;10.20;;;3.80;99.90;;;4.38;99.86;98589.03;5174997;28;20207;-64
2022/01/02 00:20:08;;;;;;;10.67;9.57;;;3.60;99.90;;;4.29;99.14;98591.63;5180600;28;20229;-63
2022/01/02 00:22:47;;;;;;;10.37;9.37;;;3.50;99.90;;;4.25;99.61;98587.03;5177569;28;20229;-64
2022/01/02 00:25:27;;;;;;;10.20;9.10;;;3.60;99.90;;;4.21;99.89;98579.91;5178156;28;20199;-63
2022/01/02 00:28:02;;;;;;;10.63;9.67;;;3.50;99.90;;;4.22;99.37;98576.63;5175340;28;20611;-63
2022/01/02 00:30:48;;;;;;;10.33;9.30;;;3.50;99.90;;;4.22;100.00;98576.63;5168879;28;20253;-64
2022/01/02 00:33:21;;;;;;;9.80;8.90;;;3.50;99.90;;;4.18;100.00;98570.41;5175085;28;20237;-64
2022/01/02 00:35:54;;;;;;;10.63;9.57;;;3.50;99.90;;;4.13;100.00;98576.66;5170725;28;20203;-64
2022/01/02 00:38:27;;;;;;;10.07;9.17;;;3.40;99.90;;;4.14;99.95;98577.53;5173125;28;20203;-64
2022/01/02 00:41:00;;;;;;;10.30;9.30;;;3.40;99.90;;;4.13;99.88;98576.66;5180126;28;20720;-64
2022/01/02 00:43:46;;;;;;;10.03;9.10;;;3.50;99.90;;;4.13;99.81;98580.84;5179997;28;20233;-64
2022/01/02 00:46:22;;;;;;;10.23;9.23;;;3.40;99.90;;;4.15;100.00;98584.38;5180033;28;20575;-64
2022/01/02 00:49:05;;;;;;;9.70;8.80;;;3.50;99.90;;;4.10;99.76;98580.56;5188388;28;20669;-64
2022/01/02 00:51:47;;;;;;;9.70;8.87;;;3.40;99.90;;;4.09;99.87;98573.69;5186971;28;20584;-64
2022/01/02 00:54:22;;;;;;;9.63;8.73;;;3.40;99.90;;;4.10;99.62;98567.91;5184796;28;20233;-64
2022/01/02 00:57:05;;;;;;;9.67;8.87;;;3.40;99.90;;;4.09;100.00;98561.03;5184035;28;20209;-63
2022/01/02 00:59:48;;;;;;;9.90;9.00;;;3.40;99.90;;;4.04;99.69;98564.06;5186322;28;20253;-64
2022/01/02 01:02:29;;;;;;;10.40;9.40;;;3.40;99.90;;;3.99;99.52;98575.38;5183970;28;20223;-64
2022/01/02 01:05:06;;;;;;;10.07;9.00;;;3.30;99.90;;;4.00;100.00;98579.66;5188105;28;20671;-63
2022/01/02 01:07:40;;;;;;;10.30;9.30;;;3.40;99.90;;;4.02;100.00;98588.31;5184640;28;20194;-64
2022/01/02 01:10:13;;;;;;;10.73;9.73;;;3.40;99.90;;;4.02;99.85;98573.13;5183157;28;20199;-63
2022/01/02 01:12:50;;;;;;;10.73;9.73;;;3.30;99.90;;;4.02;99.58;98575.66;5184485;28;20607;-63
2022/01/02 01:15:28;;;;;;;10.33;9.37;;;3.30;99.90;;;4.01;99.53;98571.34;5180459;28;20214;-63
2022/01/02 01:18:03;;;;;;;13.97;11.73;;;3.30;99.90;;;4.00;99.20;98576.25;5187478;28;20204;-63
2022/01/02 01:20:41;;;;;;;11.53;10.23;;;3.30;99.90;;;3.96;99.71;98575.09;5185616;28;20689;-63
2022/01/02 01:23:16;;;;;;;11.73;10.40;;;3.30;99.90;;;3.99;99.47;98572.84;5183404;28;20222;-63
2022/01/02 01:25:51;;;;;;;12.63;11.43;;;3.30;99.90;;;3.87;98.97;98556.53;5186691;28;20224;-64
2022/01/02 01:28:24;;;;;;;12.53;11.23;;;3.10;99.90;;;3.77;99.23;98554.75;5184505;28;20202;-64
2022/01/02 01:30:59;;;;;;;13.07;11.07;;;3.10;99.90;;;3.77;99.45;98556.41;5185321;28;20198;-63
2022/01/02 01:33:33;;;;;;;11.43;10.33;;;3.10;99.90;;;3.75;99.49;98556.28;5185697;28;20630;-64
2022/01/02 01:36:06;;;;;;;11.80;10.60;;;3.10;99.90;;;3.80;99.82;98551.63;5182841;28;20594;-63
2022/01/02 01:38:39;;;;;;;11.57;10.47;;;3.10;99.90;;;3.79;99.81;98555.78;5189839;28;20696;-63
2022/01/02 01:41:20;;;;;;;11.57;10.47;;;3.10;99.90;;;3.79;100.00;98552.38;5179678;28;20226;-63
2022/01/02 01:44:06;;;;;;;11.33;10.23;;;3.20;99.90;;;3.80;100.00;98549.97;5183938;28;20237;-63
2022/01/02 01:46:41;;;;;;;10.80;9.80;;;3.20;99.90;;;3.82;100.00;98543.44;5183801;28;20206;-63
2022/01/02 01:49:17;;;;;;;9.30;8.50;;;3.20;99.90;;;3.79;100.00;98549.84;5183503;28;20197;-63
2022/01/02 01:51:50;;;;;;;10.10;9.17;;;3.20;99.90;;;3.76;100.00;98552.09;5184287;28;20205;-63
2022/01/02 01:54:24;;;;;;;9.60;8.70;;;3.10;99.90;;;3.77;100.00;98553.88;5183611;28;20248;-63
2022/01/02 01:56:57;;;;;;;12.40;10.90;;;3.10;99.90;;;3.70;100.00;98554.06;5184470;28;20223;-63
2022/01/02 01:59:30;;;;;;;11.47;10.33;;;3.00;99.90;;;3.67;100.00;98547.06;5179921;28;20207;-63
2022/01/02 02:02:06;;;;;;;12.10;10.23;;;3.00;99.90;;;3.59;100.00;98543.81;5186787;28;20209;-63
2022/01/02 02:04:39;;;;;;;12.20;10.30;;;2.90;99.90;;;3.56;100.00;98546.03;5179325;28;20198;-63
2022/01/02 02:07:14;;;;;;;11.03;9.93;;;2.80;99.90;;;3.57;99.77;98530.13;5183381;28;20210;-63
2022/01/02 02:10:01;;;;;;;10.33;9.33;;;2.90;99.90;;;3.51;100.00;98532.06;5185034;28;20201;-63
2022/01/02 02:12:34;;;;;;;11.87;10.60;;;2.80;99.90;;;3.57;100.00;98532.66;5182332;28;20232;-63
2022/01/02 02:15:11;;;;;;;11.93;10.73;;;2.90;99.90;;;3.56;100.00;98542.63;5181479;28;20565;-63
2022/01/02 02:17:50;;;;;;;11.33;10.30;;;3.00;99.90;;;3.61;100.00;98528.78;5184420;28;20215;-63
2022/01/02 02:20:28;;;;;;;12.17;10.97;;;3.00;99.90;;;3.57;100.00;98525.06;5180969;28;20605;-63
2022/01/02 02:23:02;;;;;;;11.37;10.27;;;3.00;99.90;;;3.63;100.00;98518.81;5183867;28;20227;-64
2022/01/02 02:25:38;;;;;;;12.33;11.13;;;3.10;99.90;;;3.57;100.00;98517.47;5179379;28;20219;-63
2022/01/02 02:28:13;;;;;;;12.77;11.47;;;3.00;99.90;;;3.58;100.00;98526.88;5184026;28;20217;-63
2022/01/02 02:30:48;;;;;;;13.23;11.93;;;3.00;99.90;;;3.64;100.00;98520.63;5179741;28;20208;-63
2022/01/02 02:33:23;;;;;;;14.00;12.50;;;3.10;99.90;;;3.63;100.00;98521.34;5179149;28;20701;-64
2022/01/02 02:35:58;;;;;;;14.13;12.40;;;3.10;99.90;;;3.68;100.00;98512.56;5177012;28;20678;-63
2022/01/02 02:38:32;;;;;;;14.80;13.30;;;3.10;99.90;;;3.69;100.00;98507.66;5176383;28;20300;-63
2022/01/02 02:41:05;;;;;;;15.07;13.57;;;3.10;99.90;;;3.67;100.00;98490.56;5169181;28;20232;-63
2022/01/02 02:43:45;;;;;;;14.53;13.23;;;3.10;99.90;;;3.72;100.00;98489.34;5173591;28;20217;-64
2022/01/02 02:49:09;;;;;;;13.93;12.53;;;3.10;99.90;;;3.69;100.00;98486.53;5181941;28;20202;-63
2022/01/02 02:51:52;;;;;;;13.33;12.03;;;3.10;99.90;;;3.73;100.00;98478.50;5184551;28;20203;-63
2022/01/02 02:54:29;;;;;;;12.63;11.33;;;3.20;99.90;;;3.74;100.00;98477.75;5177352;28;20226;-64
2022/01/02 02:57:11;;;;;;;13.30;12.07;;;3.10;99.90;;;3.75;100.00;98469.41;5179393;28;20197;-63
2022/01/02 02:59:44;;;;;;;14.47;12.97;;;3.10;99.90;;;3.72;100.00;98474.16;5181284;28;20213;-63
2022/01/02 03:02:17;;;;;;;14.03;12.60;;;3.10;99.90;;;3.67;100.00;98462.75;5182713;28;20237;-64
2022/01/02 03:04:50;;;;;;;13.77;11.53;;;3.10;99.90;;;3.65;100.00;98457.56;5179948;28;20209;-63
2022/01/02 03:07:26;;;;;;;13.23;11.80;;;3.00;99.90;;;3.58;100.00;98453.56;5178627;28;20196;-63
2022/01/02 03:10:02;;;;;;;14.10;12.57;;;3.00;99.90;;;3.63;100.00;98468.25;5187640;28;20201;-63
2022/01/02 03:12:35;;;;;;;13.63;12.30;;;3.00;99.90;;;3.66;100.00;98468.53;5178807;28;20221;-63
2022/01/02 03:15:08;;;;;;;13.67;12.27;;;2.90;99.90;;;3.60;100.00;98459.63;5183851;28;20547;-63
2022/01/02 03:17:41;;;;;;;12.60;10.97;;;3.00;99.90;;;3.59;100.00;98447.75;5182395;28;20217;-63
2022/01/02 03:20:14;;;;;;;11.00;10.00;;;3.00;99.90;;;3.57;100.00;98438.25;5183128;28;20202;-63
2022/01/02 03:22:49;;;;;;;13.17;10.70;;;2.90;99.90;;;3.48;100.00;98445.88;5182712;28;20232;-63
2022/01/02 03:25:22;;;;;;;12.10;10.90;;;2.80;99.90;;;3.43;100.00;98444.53;5179143;28;20296;-63
2022/01/02 03:27:55;;;;;;;12.87;11.33;;;2.70;99.90;;;3.38;100.00;98435.66;5182350;28;20199;-63
2022/01/02 03:30:28;;;;;;;11.87;10.77;;;2.70;99.90;;;3.35;100.00;98433.75;5185366;28;20228;-63
2022/01/02 03:33:01;;;;;;;12.83;11.57;;;2.70;99.90;;;3.37;100.00;98436.38;5196911;23;20210;-64
2022/01/02 03:35:34;;;;;;;12.93;11.70;;;2.70;99.90;;;3.41;100.00;98440.13;5180716;28;20249;-63
2022/01/02 03:38:10;;;;;;;13.93;12.53;;;2.80;99.90;;;3.39;100.00;98437.44;5181678;28;20652;-62
2022/01/02 03:40:43;;;;;;;12.63;11.33;;;2.70;99.90;;;3.42;100.00;98429.25;5181362;28;20200;-62
2022/01/02 03:43:17;;;;;;;11.97;10.87;;;2.70;99.90;;;3.39;100.00;98415.59;5180172;28;20236;-63
2022/01/02 03:45:50;;;;;;;11.97;10.77;;;2.70;99.90;;;3.32;100.00;98410.72;5183119;28;20208;-63
2022/01/02 03:48:23;;;;;;;12.03;10.97;;;2.60;99.90;;;3.32;100.00;98402.22;5182647;28;20212;-63
2022/01/02 03:50:56;;;;;;;11.33;10.13;;;2.70;99.90;;;3.36;100.00;98401.78;5183018;28;20201;-63
2022/01/02 03:53:31;;;;;;;12.37;11.23;;;2.70;99.90;;;3.33;100.00;98396.44;5177665;28;20826;-62
2022/01/02 03:56:04;;;;;;;11.90;10.67;;;2.70;99.90;;;3.34;100.00;98400.75;5182107;28;20212;-62
2022/01/02 03:58:37;;;;;;;12.27;11.07;;;2.70;99.90;;;3.29;100.00;98395.28;5181943;28;20208;-62
2022/01/02 04:01:10;;;;;;;12.07;10.87;;;2.70;99.90;;;3.34;100.00;98393.16;5179983;28;20718;-62
2022/01/02 04:03:43;;;;;;;12.57;11.37;;;2.70;99.90;;;3.35;100.00;98385.75;5182408;28;20307;-63
2022/01/02 04:06:16;;;;;;;10.70;9.57;;;2.70;99.90;;;3.33;100.00;98392.28;5181664;28;20585;-62
2022/01/02 04:08:51;;;;;;;11.67;10.57;;;2.70;99.90;;;3.33;100.00;98389.75;5183587;28;20576;-63
2022/01/02 04:11:24;;;;;;;13.03;11.73;;;2.70;99.90;;;3.36;100.00;98376.50;5181642;28;20670;-63
2022/01/02 04:13:57;;;;;;;12.53;11.27;;;2.80;99.90;;;3.30;100.00;98381.00;5179352;28;20231;-63
2022/01/02 04:16:30;;;;;;;12.17;10.97;;;2.70;99.90;;;3.32;100.00;98390.50;5182049;28;20197;-63
2022/01/02 04:19:03;;;;;;;12.17;11.03;;;2.70;99.90;;;3.35;100.00;98379.81;5180953;28;20210;-62
2022/01/02 04:21:36;;;;;;;12.50;11.40;;;2.70;99.90;;;3.37;100.00;98375.75;5183508;28;20239;-63
2022/01/02 04:24:10;;;;;;;12.67;11.50;;;2.70;99.90;;;3.35;100.00;98374.75;5185787;28;20221;-63
2022/01/02 04:26:43;;;;;;;14.40;12.57;;;2.70;99.90;;;3.35;100.00;98377.28;5186027;28;20201;-62
2022/01/02 04:29:16;;;;;;;12.77;11.57;;;2.70;99.90;;;3.37;100.00;98368.19;5184011;28;20211;-64
2022/01/02 04:31:49;;;;;;;13.60;12.20;;;2.70;99.90;;;3.37;100.00;98366.53;5183572;28;20206;-62
2022/01/02 04:34:22;;;;;;;11.53;10.43;;;2.70;99.90;;;3.34;100.00;98362.84;5185594;28;20229;-64
2022/01/02 04:36:56;;;;;;;11.47;10.43;;;2.70;99.90;;;3.29;100.00;98348.88;5185656;28;20208;-61
2022/01/02 04:39:30;;;;;;;10.87;9.80;;;2.60;99.90;;;3.27;100.00;98351.28;5184964;28;20254;-64
2022/01/02 04:42:05;;;;;;;11.50;10.27;;;2.60;99.90;;;3.22;100.00;98354.13;5186814;28;20598;-62
2022/01/02 04:44:38;;;;;;;10.57;9.57;;;2.50;99.90;;;3.18;100.00;98360.53;5184523;28;20233;-62
2022/01/02 04:47:11;;;;;;;10.17;9.17;;;2.50;99.90;;;3.17;100.00;98367.22;5183157;28;20199;-62
2022/01/02 04:49:44;;;;;;;11.37;10.27;;;2.40;99.90;;;3.24;100.00;98372.84;5185226;28;20204;-62
2022/01/02 04:52:17;;;;;;;10.80;9.80;;;2.40;99.90;;;3.28;97.79;98362.28;5185930;28;20213;-63
2022/01/02 04:54:52;;;;;;;13.03;11.67;;;2.40;99.90;;;3.15;98.11;98355.22;5185619;28;20223;-63
2022/01/02 04:57:25;;;;;;;11.97;10.77;;;2.40;99.90;;;3.07;100.00;98367.09;5184688;28;20653;-63
2022/01/02 04:59:58;;;;;;;12.83;11.63;;;2.40;99.90;;;3.05;99.11;98363.53;5185782;28;20213;-62
2022/01/02 05:02:31;;;;;;;12.73;11.43;;;2.30;99.90;;;3.06;99.25;98359.38;5183710;28;20226;-62
2022/01/02 05:05:05;;;;;;;13.53;12.20;;;2.30;99.90;;;3.02;98.98;98353.16;5184912;28;20601;-62
2022/01/02 05:07:38;;;;;;;13.70;12.40;;;2.30;99.90;;;3.00;99.25;98354.63;5181763;28;20658;-62
2022/01/02 05:10:12;;;;;;;13.73;12.10;;;2.30;99.90;;;2.98;99.51;98361.19;5186270;28;20203;-63
2022/01/02 05:12:45;;;;;;;13.67;12.43;;;2.30;99.90;;;3.01;100.00;98353.91;5184213;28;20196;-63
2022/01/02 05:15:18;;;;;;;13.13;11.83;;;2.30;99.90;;;3.03;100.00;98344.81;5186725;28;20204;-62
2022/01/02 05:17:51;;;;;;;12.20;11.00;;;2.30;99.90;;;2.97;99.42;98343.38;5185687;28;20201;-63
2022/01/02 05:20:24;;;;;;;12.40;11.17;;;2.20;99.90;;;2.94;99.62;98338.91;5183998;28;20200;-63
2022/01/02 05:22:57;;;;;;;11.63;10.43;;;2.20;99.90;;;2.93;99.78;98347.25;5184435;28;20227;-63
2022/01/02 05:25:32;;;;;;;12.70;11.20;;;2.20;99.90;;;2.97;99.31;98343.38;5184609;28;20202;-60
2022/01/02 05:28:05;;;;;;;13.30;12.00;;;2.30;99.90;;;2.85;99.79;98338.06;5184976;28;20681;-62
2022/01/02 05:30:38;;;;;;;11.37;10.27;;;2.20;99.90;;;2.92;99.60;98332.88;5185890;28;20656;-64
2022/01/02 05:33:11;;;;;;;13.27;11.00;;;2.30;99.90;;;2.94;99.68;98338.91;5183710;28;20612;-61
2022/01/02 05:35:45;;;;;;;12.23;11.13;;;2.30;99.90;;;2.97;100.00;98324.06;5183620;28;20208;-64
2022/01/02 05:38:19;;;;;;;12.37;11.17;;;2.30;99.90;;;3.01;100.00;98322.72;5185277;28;20205;-64
2022/01/02 05:40:55;;;;;;;12.80;11.57;;;2.40;99.90;;;3.00;100.00;98321.81;5184204;28;20541;-62
2022/01/02 05:43:29;;;;;;;11.97;10.53;;;2.40;99.90;;;2.98;100.00;98319.94;5182242;28;20242;-62
2022/01/02 05:46:05;;;;;;;11.63;10.23;;;2.30;99.90;;;2.93;100.00;98324.53;5185151;28;20207;-62
2022/01/02 05:48:38;;;;;;;11.87;10.67;;;2.20;99.90;;;2.88;99.54;98328.25;5183282;28;20246;-62
2022/01/02 05:51:12;;;;;;;11.67;10.57;;;2.20;99.90;;;2.82;99.58;98317.59;5184653;28;20202;-63
2022/01/02 05:53:45;;;;;;;12.90;11.60;;;2.20;99.90;;;2.87;100.00;98316.38;5183604;28;20215;-61
2022/01/02 05:56:19;;;;;;;12.47;10.27;;;2.20;99.90;;;3.01;98.94;98315.16;5182925;28;20676;-62
2022/01/02 05:58:52;;;;;;;12.13;10.30;;;2.20;99.90;;;2.80;97.96;98319.06;5183139;28;20203;-62
2022/01/02 06:01:25;;;;;;;11.00;10.00;;;2.10;99.90;;;2.73;99.10;98307.50;5182303;28;20197;-64
2022/01/02 06:04:00;;;;;;;11.63;10.50;;;2.10;99.90;;;2.68;99.87;98308.72;5180561;28;20705;-62
2022/01/02 06:06:33;;;;;;;12.00;10.80;;;2.00;99.90;;;2.74;100.00;98298.31;5181904;28;20215;-62
2022/01/02 06:09:06;;;;;;;12.27;10.90;;;2.20;99.90;;;2.77;100.00;98303.63;5181644;28;20204;-63
2022/01/02 06:11:42;;;;;;;13.23;11.83;;;2.20;99.90;;;2.82;100.00;98295.75;5181622;28;20209;-63
2022/01/02 06:14:16;;;;;;;12.27;11.13;;;2.20;99.90;;;2.82;100.00;98298.28;5180990;28;20674;-62
2022/01/02 06:16:49;;;;;;;12.70;11.40;;;2.20;99.90;;;2.90;100.00;98294.84;5180742;28;20198;-62
2022/01/02 06:19:22;;;;;;;13.40;12.00;;;2.30;99.90;;;2.97;100.00;98295.41;5175822;28;20237;-61
2022/01/02 06:21:55;;;;;;;11.53;10.43;;;2.40;99.90;;;3.02;100.00;98300.13;5181729;28;20209;-62
2022/01/02 06:24:28;;;;;;;12.10;10.90;;;2.50;99.90;;;3.07;100.00;98298.94;5180313;28;20697;-61
2022/01/02 06:27:03;;;;;;;11.30;10.10;;;2.50;99.90;;;3.12;100.00;98287.63;5181471;28;20199;-63
2022/01/02 06:29:36;;;;;;;11.63;10.53;;;2.50;99.90;;;3.13;100.00;98284.34;5178717;28;20321;-62
2022/01/02 06:32:09;;;;;;;12.83;10.73;;;2.50;99.90;;;3.20;100.00;98277.31;5177884;28;20209;-62
2022/01/02 06:34:44;;;;;;;12.90;10.87;;;2.50;99.90;;;3.08;100.00;98280.50;5179991;28;20224;-62
2022/01/02 06:37:17;;;;;;;11.40;10.40;;;2.50;99.90;;;3.13;99.99;98279.28;5179897;28;20204;-63
2022/01/02 06:39:50;;;;;;;11.77;10.67;;;2.40;99.90;;;3.06;99.47;98274.44;5181031;28;20199;-62
2022/01/02 06:42:24;;;;;;;11.63;10.60;;;2.40;99.90;;;3.05;99.43;98271.75;5181788;28;20304;-62
2022/01/02 06:44:57;;;;;;;12.30;11.20;;;2.40;99.90;;;3.04;100.00;98263.31;5182380;28;20224;-61
2022/01/02 06:47:31;;;;;;;12.67;11.47;;;2.40;99.90;;;3.08;100.00;98270.41;5182287;28;20203;-63
2022/01/02 06:50:05;;;;;;;12.47;11.37;;;2.40;99.90;;;3.16;100.00;98266.06;5180350;28;20212;-63
2022/01/02 06:52:39;;;;;;;13.00;11.73;;;2.50;99.90;;;3.19;100.00;98267.97;5179110;28;20207;-62
2022/01/02 06:55:12;;;;;;;13.30;12.10;;;2.50;99.90;;;3.16;100.00;98271.13;5177789;28;20225;-62
2022/01/02 06:57:46;;;;;;;12.40;11.20;;;2.50;99.90;;;3.15;100.00;98266.81;5181122;28;20877;-61
2022/01/02 07:00:20;;;;;;;12.60;11.33;;;2.50;99.90;;;3.19;99.53;98271.41;5177346;28;20207;-62
2022/01/02 07:02:53;;;;;;;12.27;11.10;;;2.50;99.90;;;3.21;99.25;98274.97;5180389;28;20228;-59
2022/01/02 07:05:26;;;;;;;11.33;10.33;;;2.50;99.90;;;3.21;99.14;98269.91;5176682;28;20212;-62
2022/01/02 07:07:59;;;;;;;10.90;9.80;;;2.50;99.90;;;3.23;99.59;98267.50;5180948;28;20203;-61
2022/01/02 07:10:32;;;;;;;11.93;10.67;;;2.50;99.90;;;3.13;99.73;98264.13;5180207;28;20219;-62
2022/01/02 07:13:07;;;;;;;12.50;10.73;;;2.50;99.90;;;3.11;98.87;98275.72;5176738;28;20218;-62
2022/01/02 07:15:40;;;;;;;13.73;12.20;;;2.40;99.90;;;3.10;100.00;98279.00;5181211;28;20714;-63
2022/01/02 07:18:13;;;;;;;13.73;12.33;;;2.50;99.90;;;3.10;99.97;98288.22;5179283;28;20212;-62
2022/01/02 07:20:46;;;;;;;14.63;13.23;;;2.50;99.90;;;3.13;100.00;98281.81;5179890;28;20211;-60
2022/01/02 07:23:19;;;;;;;13.37;11.90;;;2.50;99.90;;;3.16;99.59;98282.09;5181144;28;20231;-64
2022/01/02 07:25:52;;;;;;;12.63;11.47;;;2.50;99.90;;;3.14;99.81;98281.06;5179125;28;20199;-62
2022/01/02 07:28:26;;;;;;;13.57;12.20;;;2.50;99.90;;;3.13;100.00;98273.38;5181321;28;20509;-60
2022/01/02 07:30:59;;;;;;;13.07;11.87;;;2.50;99.90;;;3.15;99.37;98260.13;5180457;28;20205;-63
2022/01/02 07:33:32;;;;;;;12.50;11.27;;;2.50;99.90;;;3.08;99.02;98254.38;5179448;28;20235;-62
2022/01/02 07:36:05;;;;;;;12.97;11.67;;;2.40;99.90;;;2.96;98.68;98251.59;5178589;28;20580;-62
2022/01/02 07:38:38;;;;;;;13.20;12.03;;;2.30;99.90;;;3.02;98.45;98258.84;5178692;28;20551;-62
2022/01/02 07:41:11;;;;;;;12.57;11.37;;;2.30;99.90;;;3.09;98.47;98263.72;5180272;28;20208;-60
2022/01/02 07:43:46;;;;;;;12.07;10.90;;;2.40;99.90;;;3.15;98.79;98261.78;5175449;28;20222;-62
2022/01/02 07:46:19;;;;;;;13.33;12.13;;;2.50;99.90;;;3.24;99.65;98264.25;5179005;28;20211;-61
2022/01/02 07:48:52;;;;;;;12.70;11.40;;;2.70;99.90;;;3.33;99.84;98260.91;5178013;28;20266;-59
2022/01/02 07:51:26;;;;;;;13.97;12.53;;;2.70;99.90;;;3.42;100.00;98265.91;5180753;28;20705;-63
2022/01/02 07:54:00;;;;;;;12.73;11.53;;;2.90;99.90;;;3.46;100.00;98252.78;5178222;28;20303;-62
2022/01/02 07:56:33;;;;;;;13.67;12.27;;;2.90;99.90;;;3.53;100.00;98252.63;5180170;28;20549;-63
2022/01/02 07:59:08;;;;;;;14.30;12.77;;;2.90;99.90;;;3.57;99.86;98247.06;5182733;28;20211;-60
2022/01/02 08:01:41;;;;;;;13.43;12.10;;;3.00;99.90;;;3.69;99.15;98256.50;5183361;28;20657;-58
2022/01/02 08:04:14;;;;;;;15.10;13.40;;;3.10;99.90;;;3.72;99.25;98246.66;5184020;28;20319;-62
2022/01/02 08:06:47;;;;;;;13.80;12.40;;;3.10;99.90;;;3.73;99.23;98253.53;5182639;28;20279;-63
2022/01/02 08:09:20;;;;;;;14.00;12.60;;;3.10;99.90;;;3.77;99.99;98251.38;5182082;28;20207;-61
2022/01/02 08:11:53;;;;;;;17.23;15.30;;;3.20;99.90;;;3.81;99.66;98261.03;5182078;28;20708;-64
2022/01/02 08:14:28;;;;;;;15.70;14.10;;;3.10;99.90;;;3.84;99.61;98262.97;5187578;28;20241;-65
2022/01/02 08:17:01;;;;;;;13.47;12.10;;;3.10;99.90;;;3.91;98.83;98262.72;5182907;28;20201;-62
2022/01/02 08:19:34;;;;;;;11.90;10.67;;;3.20;99.90;;;3.92;98.65;98256.03;5179440;28;20253;-62
2022/01/02 08:22:07;;;;;;;12.93;11.53;;;3.30;99.90;;;3.91;99.43;98260.22;5178345;28;20206;-63
2022/01/02 08:24:40;;;;;;;12.03;10.67;;;3.30;99.90;;;3.97;99.00;98269.97;5179871;28;20226;-62
2022/01/02 08:27:13;;;;;;;11.50;10.37;;;3.30;99.90;;;4.00;98.99;98255.06;5178723;28;20212;-63
2022/01/02 08:29:47;;;;;;;12.37;11.20;;;3.30;99.90;;;4.05;99.20;98258.91;5178026;28;20230;-63
2022/01/02 08:32:20;;;;;;;11.90;10.77;;;3.40;99.90;;;4.13;99.20;98267.19;5182709;28;21368;-63
2022/01/02 08:34:58;;;;;;;19.40;17.50;;;3.50;99.90;;;4.18;99.54;98271.00;5182862;28;20228;-62
2022/01/02 08:37:32;;;;;;;23.43;19.87;;;3.60;99.90;;;4.17;99.25;98264.16;5179739;28;20202;-61
2022/01/02 08:40:07;;;;;;;19.23;17.23;;;3.50;99.90;;;4.22;99.15;98258.75;5181070;28;20770;-62
2022/01/02 08:42:40;;;;;;;20.37;18.37;;;3.50;99.90;;;4.16;98.42;98247.22;5174890;28;20643;-64
2022/01/02 08:45:14;;;;;;;18.43;16.53;;;3.50;99.90;;;4.31;98.78;98243.47;5179002;28;20244;-62
2022/01/02 08:47:47;;;;;;;14.77;13.37;;;3.70;99.90;;;4.36;98.70;98232.13;5178234;28;20201;-63
2022/01/02 08:50:20;;;;;;;13.33;12.03;;;3.70;99.90;;;4.43;98.60;98236.94;5185208;28;20210;-64
2022/01/02 08:52:53;;;;;;;13.50;12.20;;;3.70;99.90;;;4.50;97.77;98236.75;5182117;28;20725;-62
2022/01/02 08:55:27;;;;;;;13.07;11.87;;;3.70;99.90;;;4.50;97.41;98236.75;5179008;28;20203;-63
2022/01/02 08:58:00;;;;;;;12.40;11.13;;;3.80;99.90;;;4.51;97.60;98241.03;5183488;28;20693;-61
2022/01/02 09:00:35;;;;;;;14.43;13.17;;;3.90;99.90;;;4.56;98.72;98245.63;5178663;28;20213;-62
2022/01/02 09:03:08;;;;;;;11.83;10.63;;;4.00;99.90;;;4.72;98.60;98246.16;5179686;28;20218;-61
2022/01/02 09:05:42;;;;;;;12.77;11.47;;;4.10;99.90;;;4.86;98.65;98243.16;5175521;28;20214;-63
2022/01/02 09:08:15;;;;;;;15.03;13.60;;;4.30;99.90;;;4.92;98.14;98238.63;5176092;28;20204;-63
2022/01/02 09:10:48;;;;;;;13.00;11.77;;;4.30;99.90;;;5.03;98.47;98223.44;5179998;28;20205;-63
2022/01/02 09:13:23;;;;;;;13.10;11.87;;;4.30;99.90;;;5.08;98.30;98229.78;5182494;28;20215;-64
2022/01/02 09:15:57;;;;;;;14.20;12.87;;;4.40;99.90;;;5.15;99.23;98219.41;5184444;28;20229;-64
2022/01/02 09:18:31;;;;;;;16.07;14.67;;;4.60;99.90;;;5.31;98.97;98225.00;5181344;28;20261;-63
2022/01/02 09:21:04;;;;;;;13.30;12.10;;;4.70;99.90;;;5.46;99.17;98225.38;5181418;28;20567;-63
2022/01/02 09:23:37;;;;;;;14.67;13.10;;;4.90;99.90;;;5.57;97.25;98228.78;5182479;28;20214;-63
2022/01/02 09:26:11;;;;;;;13.70;12.37;;;5.00;99.90;;;5.63;97.31;98234.34;5184198;28;20701;-64
2022/01/02 09:28:44;;;;;;;13.87;12.57;;;5.00;99.90;;;5.75;97.25;98244.63;5181854;28;20194;-63
2022/01/02 09:31:18;;;;;;;13.63;12.30;;;5.10;99.90;;;5.91;96.93;98241.69;5180806;28;20203;-61
2022/01/02 09:33:52;;;;;;;15.77;14.27;;;5.30;99.90;;;6.01;96.34;98244.22;5181410;28;20727;-63
2022/01/02 09:36:25;;;;;;;14.27;12.87;;;5.40;99.90;;;6.05;95.80;98241.19;5188406;28;20274;-64
2022/01/02 09:38:58;;;;;;;13.77;12.33;;;5.40;99.90;;;6.29;95.28;98224.47;5184947;28;20225;-64
2022/01/02 09:41:31;;;;;;;14.67;13.17;;;5.60;99.90;;;6.46;95.44;98236.84;5183936;28;20218;-63
2022/01/02 09:44:05;;;;;;;13.30;11.90;;;5.80;99.90;;;6.58;94.34;98242.03;5185530;28;20294;-63
2022/01/02 09:46:41;;;;;;;12.03;10.83;;;6.00;99.90;;;6.76;94.58;98238.38;5183887;28;20570;-63
2022/01/02 09:49:14;;;;;;;12.97;11.87;;;6.10;99.90;;;6.79;92.99;98239.41;5186260;28;20235;-63
2022/01/02 09:51:47;;;;;;;13.93;12.63;;;6.10;99.90;;;6.82;93.31;98237.09;5184666;28;20209;-63
2022/01/02 09:54:21;;;;;;;15.73;14.43;;;6.10;99.90;;;6.85;93.22;98237.31;5185634;28;20369;-62
2022/01/02 09:56:54;;;;;;;14.83;13.43;;;6.10;99.90;;;6.91;92.92;98233.59;5184060;28;20202;-63
2022/01/02 09:59:27;;;;;;;13.57;12.17;;;6.20;99.90;;;6.99;92.65;98232.53;5186335;28;20209;-63
2022/01/02 10:02:03;;;;;;;13.70;12.50;;;6.30;99.90;;;6.97;93.22;98234.06;5185560;28;20215;-64
2022/01/02 10:04:40;;;;;;;13.57;12.27;;;6.30;99.90;;;7.11;93.00;98230.03;5184626;28;20233;-63
2022/01/02 10:07:29;;;;;;;14.37;13.07;;;6.40;99.90;;;6.99;92.25;98226.56;5192567;28;20195;-62
2022/01/02 10:10:10;;;;;;;13.47;12.17;;;6.20;99.90;;;6.97;93.66;98231.53;5193672;28;20217;-63
2022/01/02 10:12:43;;;;;;;14.27;12.97;;;6.30;99.90;;;6.96;94.06;98231.41;5193736;28;20680;-63
2022/01/02 10:15:20;;;;;;;15.57;13.40;;;6.20;99.90;;;7.02;94.99;98231.00;5194204;28;20203;-63
2022/01/02 10:18:04;;;;;;;14.47;13.03;;;6.30;99.90;;;7.12;95.17;98229.25;5193707;28;20206;-63
2022/01/02 10:20:39;;;;;;;14.67;13.23;;;6.40;99.90;;;7.21;94.55;98227.44;5192836;28;20198;-63
2022/01/02 10:23:17;;;;;;;15.03;13.67;;;6.50;99.90;;;7.22;94.81;98224.13;5191092;28;20764;-63
2022/01/02 10:25:53;;;;;;;14.67;13.23;;;6.50;99.90;;;7.25;94.25;98215.84;5185767;28;20917;-63
2022/01/02 10:28:30;;;;;;;14.80;13.50;;;6.50;99.90;;;7.31;94.36;98212.88;5193228;28;20205;-63
2022/01/02 10:31:09;;;;;;;14.73;13.23;;;6.50;99.90;;;7.27;95.32;98223.56;5192794;28;20214;-63
2022/01/02 10:33:52;;;;;;;15.43;13.97;;;6.60;99.90;;;7.37;95.87;98210.78;5193031;28;20230;-63
2022/01/02 10:36:28;;;;;;;16.37;14.87;;;6.70;99.90;;;7.54;96.23;98217.13;5192078;28;20201;-63
2022/01/02 10:39:08;;;;;;;18.77;16.77;;;6.90;99.90;;;7.74;96.23;98214.41;5193799;28;20294;-63
2022/01/02 10:41:45;;;;;;;26.03;18.57;;;7.10;99.90;;;7.93;96.86;98203.91;5194310;28;20281;-63
2022/01/02 10:44:29;;;;;;;17.57;15.30;;;7.30;99.90;;;8.13;96.97;98193.50;5193173;28;20237;-63
2022/01/02 10:47:16;;;;;;;23.83;16.17;;;7.50;99.90;;;8.32;96.42;98189.72;5194233;28;20207;-63
2022/01/02 10:49:59;;;;;;;40.30;24.23;;;7.70;99.90;;;8.43;96.51;98195.59;5193524;28;20270;-64
2022/01/02 10:52:34;;;;;;;17.47;15.67;;;7.80;99.90;;;8.42;94.68;98194.72;5192882;28;20670;-63